Brevig Mission Airport

About
Name: Brevig Mission Airport
Identifier:  KTS/PFKT
Serves:  Brevig Mission, Alaska
Owner:  Alaska DOT&PF - Northern Region
Public/Private:  Public
Local Time:  18. Aug 05:06 AKDT
Description: Brevig Mission Airport is a state-owned public-use airport located in Brevig Mission, a city in the Nome Census Area of the U.S. state of Alaska.[1]
Source: Wikipedia
Location
Brevig Mission
  United States

Runways
Identifier Length (m/ft) Surface
12/30 2,990/2,990 Gravel/Dirt
4/22 2,110/2,110 Gravel
Flights per Day
5 flights
Distance: 71km (44mi)
Punctuality
90% (0 flights per day delayed)
Delay Average: 17 minutes
Current Weather
 11 C (Humidity: 76%)
  5kt (9km/h / 5mph) from 360°
  16km (10 mi.)
 
 METAR PFKT 181156Z AUTO 36005KT 10SM CLR 11/07 A3057 RMK AO2 SLP352 T01110072 10144 20106 58006

Current Flights

Departures
Number Departure To Airline
Arrivals
Number Arrival From Airline

Current Delays

Departures
N/A
Arrivals
N/A

Destinations

Top Destinations
Airport Flights
per week
Seats
per week
  Nome (OME) 0 - 0 0

Airlines & Planes

Top Airlines
Airline Flights
per Day
Seats
per Day
Bering Air 0 -
Top Plane Types
Model Flights Seats
Piper PA-31-350 0.1/day - 0
Beech B200 Super King Air 0.0/day - 0